Providence, Rhode Island
Traffic Map
Current Weather Conditions
Providence, Rhode Island
Clear
Clear
65°
Feels Like: 65°
Wind Chill: 65° Ceiling: Unl
Heat Index: 65° Visibility: 10mi
Dew Point: 52° Wind: 7mph
Humidity: 63% Direction: 280° (W)
Pressure: 30.07in Gusts: 0mph
Raw Report DataKPVD 260851Z 28006KT 10SM CLR 18/11 A3007 RMK AO2 SLP180 T01830111 53014
Traffic Incident Summary
Active as of:
Severity:
Category:
InformationThere was an issue retrieving the traffic information for this location. Please try a different location or try again shortly.
Advertisements
Track Severe Weather on mobile